< < Back
Terminal Aerodrome Forecast


Current Version              Previous Versions:   1  2  3  4  5  6  7  8  9  

Terminal Aerodrome Forecast

534
FTUS42 KTAE 232300
TAFDHN
TAF
KDHN 232320Z 2400/2424 VRB03KT P6SM FEW100
      TEMPO 2409/2413 3SM BR FEW004
     FM241500 24010KT P6SM VCTS SCT035CB SCT100=



Latest METAR

743
SAUS70 KWBC 240156
MTRDHN
METAR KDHN 240153Z AUTO 00000KT 10SM CLR 27/23 A3005 RMK AO2 SLP169
T02670228


USA.gov is the U.S. government's official web portal to all federal, state and local government web resources and services.